Aviation meteorology

METAR


Last update: 22 Oct 2021 12:20:00
627
SAHU41 HASM 221230
METAR LHSM 221215Z AUTO VRB02KT 9999 OVC010 13/11 Q1017 NOSIG

TAF


Last update: 22 Oct 2021 11:05:00
623
FCHU99 LHSM 221100
TAF LHSM 221115Z 2212/2221 18005KT 9999 BKN025 BKN055 TEMPO 2212/2220
6000 RA SHRA BKN008 SCT015TCU BKN020 BECMG 2215/2218 VRB02KT